sensor_id;sensor_type;location;lat;lon;timestamp;temperature;humidity
68274;SHT30;55104;47.356;19.448;2022-09-06T00:00:49;17.71;68.52
68274;SHT30;55104;47.356;19.448;2022-09-06T00:03:51;17.82;68.14
68274;SHT30;55104;47.356;19.448;2022-09-06T00:06:53;17.78;68.21
68274;SHT30;55104;47.356;19.448;2022-09-06T00:09:55;17.78;68.16
68274;SHT30;55104;47.356;19.448;2022-09-06T00:13:03;17.81;68.18
68274;SHT30;55104;47.356;19.448;2022-09-06T00:16:11;17.79;68.12
68274;SHT30;55104;47.356;19.448;2022-09-06T00:19:13;17.69;68.37
68274;SHT30;55104;47.356;19.448;2022-09-06T00:22:15;17.69;68.26
68274;SHT30;55104;47.356;19.448;2022-09-06T00:25:17;17.65;68.29
68274;SHT30;55104;47.356;19.448;2022-09-06T00:28:19;17.64;68.29
68274;SHT30;55104;47.356;19.448;2022-09-06T00:31:23;17.64;68.18
68274;SHT30;55104;47.356;19.448;2022-09-06T00:34:26;17.64;68.05
68274;SHT30;55104;47.356;19.448;2022-09-06T00:37:28;17.62;67.81
68274;SHT30;55104;47.356;19.448;2022-09-06T00:40:33;17.62;67.89
68274;SHT30;55104;47.356;19.448;2022-09-06T00:43:36;17.64;67.60
68274;SHT30;55104;47.356;19.448;2022-09-06T00:46:42;17.59;67.59
68274;SHT30;55104;47.356;19.448;2022-09-06T00:49:49;17.54;67.72
68274;SHT30;55104;47.356;19.448;2022-09-06T00:52:51;17.49;67.82
68274;SHT30;55104;47.356;19.448;2022-09-06T00:55:54;17.45;68.12
68274;SHT30;55104;47.356;19.448;2022-09-06T00:58:56;17.34;68.42
68274;SHT30;55104;47.356;19.448;2022-09-06T01:01:58;17.28;68.70
68274;SHT30;55104;47.356;19.448;2022-09-06T01:05:01;17.24;68.76
68274;SHT30;55104;47.356;19.448;2022-09-06T01:08:19;17.20;68.77
68274;SHT30;55104;47.356;19.448;2022-09-06T01:31:25;16.92;69.30
68274;SHT30;55104;47.356;19.448;2022-09-06T01:34:37;16.87;69.25
68274;SHT30;55104;47.356;19.448;2022-09-06T01:37:40;16.80;69.66
68274;SHT30;55104;47.356;19.448;2022-09-06T01:40:42;16.79;69.77
68274;SHT30;55104;47.356;19.448;2022-09-06T01:43:47;16.76;69.82
68274;SHT30;55104;47.356;19.448;2022-09-06T01:54:03;16.62;69.92
68274;SHT30;55104;47.356;19.448;2022-09-06T02:01:27;16.63;69.53
68274;SHT30;55104;47.356;19.448;2022-09-06T02:04:25;16.58;69.62
68274;SHT30;55104;47.356;19.448;2022-09-06T02:07:31;16.62;69.50
68274;SHT30;55104;47.356;19.448;2022-09-06T02:10:41;16.62;69.44
68274;SHT30;55104;47.356;19.448;2022-09-06T02:13:58;16.59;69.45
68274;SHT30;55104;47.356;19.448;2022-09-06T02:17:03;16.55;69.29
68274;SHT30;55104;47.356;19.448;2022-09-06T02:20:12;16.54;69.30
68274;SHT30;55104;47.356;19.448;2022-09-06T02:23:17;16.52;69.39
68274;SHT30;55104;47.356;19.448;2022-09-06T02:26:23;16.47;69.50
68274;SHT30;55104;47.356;19.448;2022-09-06T02:29:26;16.44;69.56
68274;SHT30;55104;47.356;19.448;2022-09-06T02:32:29;16.40;69.80
68274;SHT30;55104;47.356;19.448;2022-09-06T02:35:42;16.38;69.83
68274;SHT30;55104;47.356;19.448;2022-09-06T02:38:44;16.35;69.81
68274;SHT30;55104;47.356;19.448;2022-09-06T02:41:47;16.32;69.89
68274;SHT30;55104;47.356;19.448;2022-09-06T02:44:49;16.27;69.68
68274;SHT30;55104;47.356;19.448;2022-09-06T02:47:51;16.27;69.66
68274;SHT30;55104;47.356;19.448;2022-09-06T02:50:53;16.31;69.39
68274;SHT30;55104;47.356;19.448;2022-09-06T02:53:55;16.28;69.27
68274;SHT30;55104;47.356;19.448;2022-09-06T02:56:59;16.34;69.10
68274;SHT30;55104;47.356;19.448;2022-09-06T03:00:03;16.34;69.01
68274;SHT30;55104;47.356;19.448;2022-09-06T03:03:05;16.34;69.14
68274;SHT30;55104;47.356;19.448;2022-09-06T03:06:07;16.32;69.13
68274;SHT30;55104;47.356;19.448;2022-09-06T03:09:09;16.34;69.05
68274;SHT30;55104;47.356;19.448;2022-09-06T03:12:11;16.37;68.80
68274;SHT30;55104;47.356;19.448;2022-09-06T03:15:15;16.40;68.79
68274;SHT30;55104;47.356;19.448;2022-09-06T03:18:17;16.40;68.65
68274;SHT30;55104;47.356;19.448;2022-09-06T03:21:19;16.41;68.69
68274;SHT30;55104;47.356;19.448;2022-09-06T03:24:21;16.45;68.18
68274;SHT30;55104;47.356;19.448;2022-09-06T03:27:23;16.48;68.31
68274;SHT30;55104;47.356;19.448;2022-09-06T03:30:25;16.48;68.35
68274;SHT30;55104;47.356;19.448;2022-09-06T03:33:28;16.42;68.50
68274;SHT30;55104;47.356;19.448;2022-09-06T03:36:30;16.47;68.35
68274;SHT30;55104;47.356;19.448;2022-09-06T03:39:32;16.45;68.35
68274;SHT30;55104;47.356;19.448;2022-09-06T03:42:34;16.52;67.94
68274;SHT30;55104;47.356;19.448;2022-09-06T03:45:36;16.49;68.33
68274;SHT30;55104;47.356;19.448;2022-09-06T03:48:38;16.47;68.31
68274;SHT30;55104;47.356;19.448;2022-09-06T03:51:40;16.42;68.30
68274;SHT30;55104;47.356;19.448;2022-09-06T03:54:42;16.35;68.40
68274;SHT30;55104;47.356;19.448;2022-09-06T03:57:44;16.41;68.17
68274;SHT30;55104;47.356;19.448;2022-09-06T04:00:46;16.40;68.08
68274;SHT30;55104;47.356;19.448;2022-09-06T04:03:49;16.41;67.81
68274;SHT30;55104;47.356;19.448;2022-09-06T04:06:51;16.44;67.66
68274;SHT30;55104;47.356;19.448;2022-09-06T04:09:53;16.41;67.64
68274;SHT30;55104;47.356;19.448;2022-09-06T04:12:55;16.42;67.29
68274;SHT30;55104;47.356;19.448;2022-09-06T04:15:57;16.40;67.32
68274;SHT30;55104;47.356;19.448;2022-09-06T04:19:00;16.40;67.16
68274;SHT30;55104;47.356;19.448;2022-09-06T04:22:03;16.37;67.32
68274;SHT30;55104;47.356;19.448;2022-09-06T04:25:06;16.34;66.98
68274;SHT30;55104;47.356;19.448;2022-09-06T04:28:08;16.37;67.10
68274;SHT30;55104;47.356;19.448;2022-09-06T04:31:10;16.37;66.86
68274;SHT30;55104;47.356;19.448;2022-09-06T04:34:12;16.41;66.79
68274;SHT30;55104;47.356;19.448;2022-09-06T04:37:15;16.35;67.06
68274;SHT30;55104;47.356;19.448;2022-09-06T04:40:21;16.45;66.95
68274;SHT30;55104;47.356;19.448;2022-09-06T04:43:23;16.48;66.73
68274;SHT30;55104;47.356;19.448;2022-09-06T04:46:29;16.40;66.98
68274;SHT30;55104;47.356;19.448;2022-09-06T04:49:31;16.40;66.91
68274;SHT30;55104;47.356;19.448;2022-09-06T04:52:33;16.49;66.70
68274;SHT30;55104;47.356;19.448;2022-09-06T04:55:36;16.52;66.01
68274;SHT30;55104;47.356;19.448;2022-09-06T04:58:38;16.59;65.77
68274;SHT30;55104;47.356;19.448;2022-09-06T05:01:40;16.61;65.55
68274;SHT30;55104;47.356;19.448;2022-09-06T05:04:42;16.69;65.28
68274;SHT30;55104;47.356;19.448;2022-09-06T05:07:44;16.73;65.57
68274;SHT30;55104;47.356;19.448;2022-09-06T05:10:50;16.75;65.55
68274;SHT30;55104;47.356;19.448;2022-09-06T05:13:52;16.76;65.61
68274;SHT30;55104;47.356;19.448;2022-09-06T05:16:54;16.79;65.46
68274;SHT30;55104;47.356;19.448;2022-09-06T05:19:56;16.83;65.05
68274;SHT30;55104;47.356;19.448;2022-09-06T05:22:58;16.80;64.40
68274;SHT30;55104;47.356;19.448;2022-09-06T05:26:00;16.84;64.34
68274;SHT30;55104;47.356;19.448;2022-09-06T05:29:03;16.86;64.05
68274;SHT30;55104;47.356;19.448;2022-09-06T05:32:05;16.84;64.19
68274;SHT30;55104;47.356;19.448;2022-09-06T05:35:07;16.86;64.01
68274;SHT30;55104;47.356;19.448;2022-09-06T05:38:09;16.76;63.81
68274;SHT30;55104;47.356;19.448;2022-09-06T05:41:11;16.82;63.71
68274;SHT30;55104;47.356;19.448;2022-09-06T05:44:13;16.87;63.36
68274;SHT30;55104;47.356;19.448;2022-09-06T05:47:15;16.87;63.67
68274;SHT30;55104;47.356;19.448;2022-09-06T05:50:18;16.89;63.43
68274;SHT30;55104;47.356;19.448;2022-09-06T05:53:20;16.97;63.32
68274;SHT30;55104;47.356;19.448;2022-09-06T05:56:22;17.03;63.36
68274;SHT30;55104;47.356;19.448;2022-09-06T05:59:24;17.16;62.72
68274;SHT30;55104;47.356;19.448;2022-09-06T06:02:26;17.27;62.20
68274;SHT30;55104;47.356;19.448;2022-09-06T06:05:28;17.35;62.33
68274;SHT30;55104;47.356;19.448;2022-09-06T06:08:31;17.45;61.72
68274;SHT30;55104;47.356;19.448;2022-09-06T06:11:33;17.54;61.61
68274;SHT30;55104;47.356;19.448;2022-09-06T06:14:35;17.76;61.06
68274;SHT30;55104;47.356;19.448;2022-09-06T06:17:37;17.85;61.16
68274;SHT30;55104;47.356;19.448;2022-09-06T06:20:39;17.83;60.49
68274;SHT30;55104;47.356;19.448;2022-09-06T06:23:43;17.78;60.91
68274;SHT30;55104;47.356;19.448;2022-09-06T06:26:45;17.90;60.36
68274;SHT30;55104;47.356;19.448;2022-09-06T06:29:47;18.06;60.44
68274;SHT30;55104;47.356;19.448;2022-09-06T06:32:49;18.27;59.46
68274;SHT30;55104;47.356;19.448;2022-09-06T06:35:59;18.31;58.99
68274;SHT30;55104;47.356;19.448;2022-09-06T06:39:04;18.41;59.16
68274;SHT30;55104;47.356;19.448;2022-09-06T06:42:07;18.61;59.04
68274;SHT30;55104;47.356;19.448;2022-09-06T06:45:20;18.65;58.18
68274;SHT30;55104;47.356;19.448;2022-09-06T06:48:23;18.61;58.16
68274;SHT30;55104;47.356;19.448;2022-09-06T06:51:27;18.76;58.48
68274;SHT30;55104;47.356;19.448;2022-09-06T06:54:29;18.88;57.89
68274;SHT30;55104;47.356;19.448;2022-09-06T06:57:31;19.07;57.60
68274;SHT30;55104;47.356;19.448;2022-09-06T07:00:34;19.10;57.06
68274;SHT30;55104;47.356;19.448;2022-09-06T07:03:36;19.17;57.82
68274;SHT30;55104;47.356;19.448;2022-09-06T07:06:46;19.20;57.36
68274;SHT30;55104;47.356;19.448;2022-09-06T07:10:09;19.43;56.77
68274;SHT30;55104;47.356;19.448;2022-09-06T07:13:31;19.64;57.66
68274;SHT30;55104;47.356;19.448;2022-09-06T07:16:37;19.85;56.23
68274;SHT30;55104;47.356;19.448;2022-09-06T07:19:39;19.93;55.82
68274;SHT30;55104;47.356;19.448;2022-09-06T07:23:02;20.06;56.00
68274;SHT30;55104;47.356;19.448;2022-09-06T07:26:28;20.27;55.58
68274;SHT30;55104;47.356;19.448;2022-09-06T07:29:30;20.48;54.98
68274;SHT30;55104;47.356;19.448;2022-09-06T07:32:35;20.65;54.94
68274;SHT30;55104;47.356;19.448;2022-09-06T07:35:37;20.89;55.20
68274;SHT30;55104;47.356;19.448;2022-09-06T07:38:39;20.82;54.74
68274;SHT30;55104;47.356;19.448;2022-09-06T07:41:41;20.99;54.46
68274;SHT30;55104;47.356;19.448;2022-09-06T07:44:43;21.02;54.29
68274;SHT30;55104;47.356;19.448;2022-09-06T07:47:55;21.19;53.76
68274;SHT30;55104;47.356;19.448;2022-09-06T07:51:05;21.43;53.44
68274;SHT30;55104;47.356;19.448;2022-09-06T07:54:07;21.68;53.67
68274;SHT30;55104;47.356;19.448;2022-09-06T07:57:29;21.96;54.46
68274;SHT30;55104;47.356;19.448;2022-09-06T08:00:31;22.02;52.20
68274;SHT30;55104;47.356;19.448;2022-09-06T08:03:33;22.37;53.69
68274;SHT30;55104;47.356;19.448;2022-09-06T08:06:38;22.44;52.19
68274;SHT30;55104;47.356;19.448;2022-09-06T08:10:01;22.54;52.42
68274;SHT30;55104;47.356;19.448;2022-09-06T08:13:03;22.50;51.57
68274;SHT30;55104;47.356;19.448;2022-09-06T08:16:07;22.58;52.13
68274;SHT30;55104;47.356;19.448;2022-09-06T08:19:09;22.57;51.86
68274;SHT30;55104;47.356;19.448;2022-09-06T08:22:13;22.81;52.04
68274;SHT30;55104;47.356;19.448;2022-09-06T08:25:15;23.19;52.23
68274;SHT30;55104;47.356;19.448;2022-09-06T08:28:17;23.45;50.45
68274;SHT30;55104;47.356;19.448;2022-09-06T08:31:19;23.57;50.68
68274;SHT30;55104;47.356;19.448;2022-09-06T08:34:21;24.00;49.75
68274;SHT30;55104;47.356;19.448;2022-09-06T08:37:23;24.25;50.70
68274;SHT30;55104;47.356;19.448;2022-09-06T08:40:26;24.63;48.04
68274;SHT30;55104;47.356;19.448;2022-09-06T08:43:28;24.91;48.18
68274;SHT30;55104;47.356;19.448;2022-09-06T08:46:36;25.08;47.23
68274;SHT30;55104;47.356;19.448;2022-09-06T08:49:45;25.47;47.24
68274;SHT30;55104;47.356;19.448;2022-09-06T08:56:24;25.63;46.69
68274;SHT30;55104;47.356;19.448;2022-09-06T08:59:35;25.60;47.05
68274;SHT30;55104;47.356;19.448;2022-09-06T09:02:51;25.19;46.81
68274;SHT30;55104;47.356;19.448;2022-09-06T09:05:56;25.42;47.16
68274;SHT30;55104;47.356;19.448;2022-09-06T09:09:12;25.42;47.28
68274;SHT30;55104;47.356;19.448;2022-09-06T09:12:21;25.24;47.54
68274;SHT30;55104;47.356;19.448;2022-09-06T09:15:24;25.16;47.61
68274;SHT30;55104;47.356;19.448;2022-09-06T09:18:29;25.52;49.09
68274;SHT30;55104;47.356;19.448;2022-09-06T09:21:36;25.60;48.02
68274;SHT30;55104;47.356;19.448;2022-09-06T09:24:38;25.46;46.38
68274;SHT30;55104;47.356;19.448;2022-09-06T09:27:48;25.50;47.79
68274;SHT30;55104;47.356;19.448;2022-09-06T09:30:58;25.88;47.44
68274;SHT30;55104;47.356;19.448;2022-09-06T09:34:00;26.01;47.32
68274;SHT30;55104;47.356;19.448;2022-09-06T09:37:24;26.20;46.26
68274;SHT30;55104;47.356;19.448;2022-09-06T09:40:52;26.36;45.87
68274;SHT30;55104;47.356;19.448;2022-09-06T09:44:00;26.68;45.54
68274;SHT30;55104;47.356;19.448;2022-09-06T09:47:26;27.08;44.38
68274;SHT30;55104;47.356;19.448;2022-09-06T09:50:31;27.24;44.95
68274;SHT30;55104;47.356;19.448;2022-09-06T09:53:48;27.51;44.60
68274;SHT30;55104;47.356;19.448;2022-09-06T09:56:51;27.65;44.18
68274;SHT30;55104;47.356;19.448;2022-09-06T09:59:55;27.51;43.75
68274;SHT30;55104;47.356;19.448;2022-09-06T10:03:00;27.24;43.71
68274;SHT30;55104;47.356;19.448;2022-09-06T10:06:02;27.41;45.05
68274;SHT30;55104;47.356;19.448;2022-09-06T10:09:13;27.61;44.89
68274;SHT30;55104;47.356;19.448;2022-09-06T10:12:40;27.46;44.88
68274;SHT30;55104;47.356;19.448;2022-09-06T10:15:43;27.17;44.02
68274;SHT30;55104;47.356;19.448;2022-09-06T10:18:45;26.97;45.78
68274;SHT30;55104;47.356;19.448;2022-09-06T10:21:48;27.27;45.60
68274;SHT30;55104;47.356;19.448;2022-09-06T10:34:47;27.58;44.77
68274;SHT30;55104;47.356;19.448;2022-09-06T10:41:31;27.92;42.14
68274;SHT30;55104;47.356;19.448;2022-09-06T10:47:54;28.27;42.07
68274;SHT30;55104;47.356;19.448;2022-09-06T10:51:07;28.68;42.35
68274;SHT30;55104;47.356;19.448;2022-09-06T10:54:16;28.97;41.32
68274;SHT30;55104;47.356;19.448;2022-09-06T10:57:28;28.99;41.75
68274;SHT30;55104;47.356;19.448;2022-09-06T11:00:55;28.25;41.37
68274;SHT30;55104;47.356;19.448;2022-09-06T11:03:58;27.67;42.94
68274;SHT30;55104;47.356;19.448;2022-09-06T11:07:22;27.87;43.73
68274;SHT30;55104;47.356;19.448;2022-09-06T11:10:30;27.90;43.31
68274;SHT30;55104;47.356;19.448;2022-09-06T11:13:33;28.13;43.76
68274;SHT30;55104;47.356;19.448;2022-09-06T11:16:41;28.37;42.84
68274;SHT30;55104;47.356;19.448;2022-09-06T11:29:57;27.96;43.98
68274;SHT30;55104;47.356;19.448;2022-09-06T11:33:08;27.73;44.53
68274;SHT30;55104;47.356;19.448;2022-09-06T11:39:38;27.59;44.43
68274;SHT30;55104;47.356;19.448;2022-09-06T11:46:04;27.28;43.59
68274;SHT30;55104;47.356;19.448;2022-09-06T11:49:08;27.61;44.27
68274;SHT30;55104;47.356;19.448;2022-09-06T12:02:37;29.37;40.10
68274;SHT30;55104;47.356;19.448;2022-09-06T12:06:13;29.17;41.29
68274;SHT30;55104;47.356;19.448;2022-09-06T12:09:50;28.88;42.17
68274;SHT30;55104;47.356;19.448;2022-09-06T12:12:52;28.38;41.95
68274;SHT30;55104;47.356;19.448;2022-09-06T12:15:54;28.06;44.01
68274;SHT30;55104;47.356;19.448;2022-09-06T12:18:58;28.07;44.06
68274;SHT30;55104;47.356;19.448;2022-09-06T12:22:00;28.10;44.18
68274;SHT30;55104;47.356;19.448;2022-09-06T12:31:44;27.53;44.48
68274;SHT30;55104;47.356;19.448;2022-09-06T12:34:48;27.42;45.25
68274;SHT30;55104;47.356;19.448;2022-09-06T12:38:13;27.27;46.08
68274;SHT30;55104;47.356;19.448;2022-09-06T12:41:16;27.43;45.06
68274;SHT30;55104;47.356;19.448;2022-09-06T12:44:28;27.97;44.20
68274;SHT30;55104;47.356;19.448;2022-09-06T12:47:33;28.17;42.84
68274;SHT30;55104;47.356;19.448;2022-09-06T12:50:36;28.51;43.94
68274;SHT30;55104;47.356;19.448;2022-09-06T12:53:38;28.20;42.06
68274;SHT30;55104;47.356;19.448;2022-09-06T12:56:40;28.44;41.47
68274;SHT30;55104;47.356;19.448;2022-09-06T12:59:53;28.53;41.47
68274;SHT30;55104;47.356;19.448;2022-09-06T13:03:24;28.62;41.38
68274;SHT30;55104;47.356;19.448;2022-09-06T13:06:36;28.56;42.16
68274;SHT30;55104;47.356;19.448;2022-09-06T13:09:42;28.69;41.38
68274;SHT30;55104;47.356;19.448;2022-09-06T13:12:46;28.63;40.67
68274;SHT30;55104;47.356;19.448;2022-09-06T13:15:51;28.72;39.95
68274;SHT30;55104;47.356;19.448;2022-09-06T13:18:54;28.76;41.25
68274;SHT30;55104;47.356;19.448;2022-09-06T13:22:38;28.96;40.77
68274;SHT30;55104;47.356;19.448;2022-09-06T13:25:51;29.14;41.25
68274;SHT30;55104;47.356;19.448;2022-09-06T13:28:53;29.20;40.25
68274;SHT30;55104;47.356;19.448;2022-09-06T13:31:58;29.21;41.19
68274;SHT30;55104;47.356;19.448;2022-09-06T13:35:02;29.27;41.01
68274;SHT30;55104;47.356;19.448;2022-09-06T13:38:31;29.18;40.71
68274;SHT30;55104;47.356;19.448;2022-09-06T13:41:38;28.55;41.10
68274;SHT30;55104;47.356;19.448;2022-09-06T13:44:41;28.13;42.49
68274;SHT30;55104;47.356;19.448;2022-09-06T13:47:44;27.80;44.18
68274;SHT30;55104;47.356;19.448;2022-09-06T13:50:47;27.48;44.37
68274;SHT30;55104;47.356;19.448;2022-09-06T13:53:49;27.25;44.81
68274;SHT30;55104;47.356;19.448;2022-09-06T13:56:52;27.03;45.55
68274;SHT30;55104;47.356;19.448;2022-09-06T13:59:54;26.94;45.70
68274;SHT30;55104;47.356;19.448;2022-09-06T14:02:56;26.97;46.64
68274;SHT30;55104;47.356;19.448;2022-09-06T14:06:00;26.91;46.76
68274;SHT30;55104;47.356;19.448;2022-09-06T14:09:02;26.80;46.69
68274;SHT30;55104;47.356;19.448;2022-09-06T14:12:08;26.75;46.07
68274;SHT30;55104;47.356;19.448;2022-09-06T14:15:10;26.76;47.43
68274;SHT30;55104;47.356;19.448;2022-09-06T14:18:15;26.87;46.54
68274;SHT30;55104;47.356;19.448;2022-09-06T14:21:17;26.90;45.64
68274;SHT30;55104;47.356;19.448;2022-09-06T14:24:19;26.98;45.83
68274;SHT30;55104;47.356;19.448;2022-09-06T14:27:22;26.93;45.80
68274;SHT30;55104;47.356;19.448;2022-09-06T14:30:24;26.84;47.28
68274;SHT30;55104;47.356;19.448;2022-09-06T14:33:26;26.83;46.18
68274;SHT30;55104;47.356;19.448;2022-09-06T14:36:31;26.76;47.00
68274;SHT30;55104;47.356;19.448;2022-09-06T14:39:33;26.73;46.14
68274;SHT30;55104;47.356;19.448;2022-09-06T14:42:35;26.70;45.84
68274;SHT30;55104;47.356;19.448;2022-09-06T14:45:37;26.64;45.61
68274;SHT30;55104;47.356;19.448;2022-09-06T14:48:41;26.52;46.63
68274;SHT30;55104;47.356;19.448;2022-09-06T14:51:43;26.52;46.86
68274;SHT30;55104;47.356;19.448;2022-09-06T14:54:46;26.53;46.31
68274;SHT30;55104;47.356;19.448;2022-09-06T14:57:48;26.45;46.30
68274;SHT30;55104;47.356;19.448;2022-09-06T15:00:50;26.36;46.26
68274;SHT30;55104;47.356;19.448;2022-09-06T15:03:59;26.26;46.41
68274;SHT30;55104;47.356;19.448;2022-09-06T15:07:02;26.17;46.53
68274;SHT30;55104;47.356;19.448;2022-09-06T15:10:05;26.08;46.61
68274;SHT30;55104;47.356;19.448;2022-09-06T15:13:07;25.96;46.84
68274;SHT30;55104;47.356;19.448;2022-09-06T15:16:09;25.87;47.97
68274;SHT30;55104;47.356;19.448;2022-09-06T15:19:12;25.79;48.23
68274;SHT30;55104;47.356;19.448;2022-09-06T15:22:14;25.70;48.27
68274;SHT30;55104;47.356;19.448;2022-09-06T15:25:16;25.60;49.01
68274;SHT30;55104;47.356;19.448;2022-09-06T15:28:18;25.58;48.03
68274;SHT30;55104;47.356;19.448;2022-09-06T15:31:20;25.52;48.32
68274;SHT30;55104;47.356;19.448;2022-09-06T15:34:24;25.46;49.14
68274;SHT30;55104;47.356;19.448;2022-09-06T15:37:26;25.42;49.49
68274;SHT30;55104;47.356;19.448;2022-09-06T15:40:28;25.32;49.98
68274;SHT30;55104;47.356;19.448;2022-09-06T15:43:32;25.21;50.45
68274;SHT30;55104;47.356;19.448;2022-09-06T15:47:09;25.18;50.50
68274;SHT30;55104;47.356;19.448;2022-09-06T15:50:12;25.18;50.63
68274;SHT30;55104;47.356;19.448;2022-09-06T15:53:14;25.16;50.42
68274;SHT30;55104;47.356;19.448;2022-09-06T15:56:17;25.10;50.93
68274;SHT30;55104;47.356;19.448;2022-09-06T15:59:19;25.05;50.89
68274;SHT30;55104;47.356;19.448;2022-09-06T16:02:21;24.98;50.76
68274;SHT30;55104;47.356;19.448;2022-09-06T16:05:24;24.94;50.43
68274;SHT30;55104;47.356;19.448;2022-09-06T16:08:49;24.88;50.77
68274;SHT30;55104;47.356;19.448;2022-09-06T16:11:51;24.81;51.11
68274;SHT30;55104;47.356;19.448;2022-09-06T16:14:53;24.80;51.28
68274;SHT30;55104;47.356;19.448;2022-09-06T16:17:55;24.77;51.49
68274;SHT30;55104;47.356;19.448;2022-09-06T16:21:22;24.80;51.65
68274;SHT30;55104;47.356;19.448;2022-09-06T16:24:25;24.76;51.88
68274;SHT30;55104;47.356;19.448;2022-09-06T16:27:27;24.70;52.19
68274;SHT30;55104;47.356;19.448;2022-09-06T16:30:29;24.63;52.50
68274;SHT30;55104;47.356;19.448;2022-09-06T16:33:33;24.56;52.85
68274;SHT30;55104;47.356;19.448;2022-09-06T16:36:35;24.46;53.93
68274;SHT30;55104;47.356;19.448;2022-09-06T16:39:38;24.40;54.07
68274;SHT30;55104;47.356;19.448;2022-09-06T16:42:41;24.35;56.03
68274;SHT30;55104;47.356;19.448;2022-09-06T16:45:54;23.78;60.66
68274;SHT30;55104;47.356;19.448;2022-09-06T16:48:58;23.26;64.67
68274;SHT30;55104;47.356;19.448;2022-09-06T16:52:02;22.71;68.08
68274;SHT30;55104;47.356;19.448;2022-09-06T16:55:05;22.24;69.40
68274;SHT30;55104;47.356;19.448;2022-09-06T16:58:07;22.09;70.82
68274;SHT30;55104;47.356;19.448;2022-09-06T17:01:09;21.88;71.45
68274;SHT30;55104;47.356;19.448;2022-09-06T17:04:12;21.78;71.83
68274;SHT30;55104;47.356;19.448;2022-09-06T17:07:14;21.57;72.62
68274;SHT30;55104;47.356;19.448;2022-09-06T17:10:17;21.48;73.51
68274;SHT30;55104;47.356;19.448;2022-09-06T17:13:19;21.39;73.56
68274;SHT30;55104;47.356;19.448;2022-09-06T17:16:22;21.33;73.81
68274;SHT30;55104;47.356;19.448;2022-09-06T17:19:43;21.36;73.53
68274;SHT30;55104;47.356;19.448;2022-09-06T17:22:49;21.33;73.81
68274;SHT30;55104;47.356;19.448;2022-09-06T17:25:51;21.30;74.17
68274;SHT30;55104;47.356;19.448;2022-09-06T17:28:53;21.30;73.84
68274;SHT30;55104;47.356;19.448;2022-09-06T17:31:58;21.34;74.22
68274;SHT30;55104;47.356;19.448;2022-09-06T17:35:00;21.27;74.96
68274;SHT30;55104;47.356;19.448;2022-09-06T17:38:03;21.24;74.96
68274;SHT30;55104;47.356;19.448;2022-09-06T17:41:06;21.26;75.19
68274;SHT30;55104;47.356;19.448;2022-09-06T17:44:09;21.29;75.00
68274;SHT30;55104;47.356;19.448;2022-09-06T17:47:12;21.26;74.49
68274;SHT30;55104;47.356;19.448;2022-09-06T17:50:15;21.20;74.05
68274;SHT30;55104;47.356;19.448;2022-09-06T17:53:18;21.24;74.22
68274;SHT30;55104;47.356;19.448;2022-09-06T17:56:20;21.22;75.14
68274;SHT30;55104;47.356;19.448;2022-09-06T17:59:22;21.16;75.02
68274;SHT30;55104;47.356;19.448;2022-09-06T18:02:24;21.13;75.25
68274;SHT30;55104;47.356;19.448;2022-09-06T18:05:26;21.13;75.83
68274;SHT30;55104;47.356;19.448;2022-09-06T18:08:29;21.10;75.95
68274;SHT30;55104;47.356;19.448;2022-09-06T18:11:32;21.09;75.73
68274;SHT30;55104;47.356;19.448;2022-09-06T18:14:34;21.06;75.41
68274;SHT30;55104;47.356;19.448;2022-09-06T18:17:37;21.02;75.32
68274;SHT30;55104;47.356;19.448;2022-09-06T18:20:39;21.02;75.77
68274;SHT30;55104;47.356;19.448;2022-09-06T18:23:41;20.98;75.71
68274;SHT30;55104;47.356;19.448;2022-09-06T18:26:43;20.96;75.43
68274;SHT30;55104;47.356;19.448;2022-09-06T18:29:45;20.99;75.58
68274;SHT30;55104;47.356;19.448;2022-09-06T18:32:47;20.99;75.26
68274;SHT30;55104;47.356;19.448;2022-09-06T18:35:49;20.99;75.40
68274;SHT30;55104;47.356;19.448;2022-09-06T18:38:52;20.93;75.63
68274;SHT30;55104;47.356;19.448;2022-09-06T18:41:54;20.96;75.86
68274;SHT30;55104;47.356;19.448;2022-09-06T18:45:02;20.91;75.91
68274;SHT30;55104;47.356;19.448;2022-09-06T18:48:04;20.86;76.30
68274;SHT30;55104;47.356;19.448;2022-09-06T18:51:12;20.85;76.53
68274;SHT30;55104;47.356;19.448;2022-09-06T18:54:15;20.81;76.73
68274;SHT30;55104;47.356;19.448;2022-09-06T18:57:17;20.79;76.96
68274;SHT30;55104;47.356;19.448;2022-09-06T19:00:20;20.78;77.09
68274;SHT30;55104;47.356;19.448;2022-09-06T19:03:22;20.75;76.62
68274;SHT30;55104;47.356;19.448;2022-09-06T19:06:26;20.75;76.45
68274;SHT30;55104;47.356;19.448;2022-09-06T19:09:29;20.69;76.68
68274;SHT30;55104;47.356;19.448;2022-09-06T19:12:31;20.67;76.72
68274;SHT30;55104;47.356;19.448;2022-09-06T19:15:33;20.63;76.68
68274;SHT30;55104;47.356;19.448;2022-09-06T19:18:36;20.61;76.93
68274;SHT30;55104;47.356;19.448;2022-09-06T19:21:39;20.57;76.77
68274;SHT30;55104;47.356;19.448;2022-09-06T19:24:43;20.52;76.66
68274;SHT30;55104;47.356;19.448;2022-09-06T19:27:45;20.50;77.02
68274;SHT30;55104;47.356;19.448;2022-09-06T19:30:49;20.51;76.74
68274;SHT30;55104;47.356;19.448;2022-09-06T19:33:53;20.50;76.68
68274;SHT30;55104;47.356;19.448;2022-09-06T19:36:55;20.51;76.68
68274;SHT30;55104;47.356;19.448;2022-09-06T19:39:58;20.48;76.64
68274;SHT30;55104;47.356;19.448;2022-09-06T19:43:00;20.48;76.80
68274;SHT30;55104;47.356;19.448;2022-09-06T19:46:04;20.47;76.67
68274;SHT30;55104;47.356;19.448;2022-09-06T19:49:09;20.45;76.53
68274;SHT30;55104;47.356;19.448;2022-09-06T19:52:11;20.41;76.66
68274;SHT30;55104;47.356;19.448;2022-09-06T19:55:14;20.38;76.73
68274;SHT30;55104;47.356;19.448;2022-09-06T19:58:16;20.33;76.76
68274;SHT30;55104;47.356;19.448;2022-09-06T20:01:18;20.20;77.15
68274;SHT30;55104;47.356;19.448;2022-09-06T20:04:20;20.16;77.49
68274;SHT30;55104;47.356;19.448;2022-09-06T20:07:22;20.10;77.45
68274;SHT30;55104;47.356;19.448;2022-09-06T20:10:24;20.06;77.67
68274;SHT30;55104;47.356;19.448;2022-09-06T20:13:27;20.00;77.80
68274;SHT30;55104;47.356;19.448;2022-09-06T20:16:30;19.96;77.73
68274;SHT30;55104;47.356;19.448;2022-09-06T20:19:33;19.86;78.22
68274;SHT30;55104;47.356;19.448;2022-09-06T20:22:35;19.81;78.38
68274;SHT30;55104;47.356;19.448;2022-09-06T20:25:37;19.74;78.46
68274;SHT30;55104;47.356;19.448;2022-09-06T20:28:41;19.65;78.80
68274;SHT30;55104;47.356;19.448;2022-09-06T20:31:44;19.50;80.58
68274;SHT30;55104;47.356;19.448;2022-09-06T20:34:47;19.48;80.78